Time;durP1;ratioP1;P1;durP2;ratioP2;P2;SDS_P1;SDS_P2;PMS_P1;PMS_P2;Temp;Humidity;BMP_temperature;BMP_pressure;BME280_temperature;BME280_humidity;BME280_pressure;Samples;Min_cycle;Max_cycle;Signal;HPM_P1;HPM_P2
2022/10/21 00:01:16;;;;;;;;;;;;;;;21.00;28.12;98935.50;5099151;28;1987;-79
2022/10/21 00:03:41;;;;;;;;;;;;;;;21.51;27.35;98939.47;5099719;28;719;-79
2022/10/21 00:06:07;;;;;;;;;;;;;;;21.75;26.79;98937.56;5098388;28;1100;-79
2022/10/21 00:08:33;;;;;;;;;;;;;;;21.16;27.41;98935.75;5099468;28;821;-79
2022/10/21 00:10:59;;;;;;;;;;;;;;;21.12;27.79;98929.31;5099257;28;719;-78
2022/10/21 00:13:25;;;;;;;;;;;;;;;20.97;27.80;98930.69;5098458;28;803;-79
2022/10/21 00:16:00;;;;;;;;;;;;;;;21.04;28.01;98924.97;5081784;28;1039;-79
2022/10/21 00:18:25;;;;;;;;;;;;;;;21.43;27.05;98920.94;5099162;28;841;-79
2022/10/21 00:20:51;;;;;;;;;;;;;;;21.75;26.59;98927.03;5099450;28;738;-79
2022/10/21 00:23:16;;;;;;;;;;;;;;;21.41;27.21;98929.06;5099330;28;1967;-79
2022/10/21 00:25:42;;;;;;;;;;;;;;;20.84;27.89;98924.75;5098110;28;778;-79
2022/10/21 00:28:07;;;;;;;;;;;;;;;20.81;27.91;98926.38;5081583;28;1134;-79
2022/10/21 00:30:32;;;;;;;;;;;;;;;21.20;27.27;98919.56;5081590;28;1260;-79
2022/10/21 00:32:58;;;;;;;;;;;;;;;21.54;27.04;98924.44;5098085;28;1114;-79
2022/10/21 00:35:23;;;;;;;;;;;;;;;21.64;26.57;98920.69;5098156;28;829;-78
2022/10/21 00:37:49;;;;;;;;;;;;;;;21.20;27.19;98919.56;5097721;28;691;-79
2022/10/21 00:40:14;;;;;;;;;;;;;;;20.92;27.84;98919.81;5117500;28;1099;-79
2022/10/21 00:42:40;;;;;;;;;;;;;;;21.01;27.43;98918.13;5116566;28;1980;-79
2022/10/21 00:45:05;;;;;;;;;;;;;;;21.37;27.00;98922.63;5116920;28;942;-79
2022/10/21 00:47:32;;;;;;;;;;;;;;;21.56;26.90;98919.19;5116782;28;706;-79
2022/10/21 00:49:59;;;;;;;;;;;;;;;21.21;27.09;98915.50;5099812;28;860;-79
2022/10/21 00:52:24;;;;;;;;;;;;;;;20.91;27.47;98915.38;5083001;28;1109;-79
2022/10/21 00:54:50;;;;;;;;;;;;;;;21.04;27.56;98910.81;5117015;28;852;-78
2022/10/21 00:57:16;;;;;;;;;;;;;;;21.22;27.02;98917.09;5082619;28;1181;-79
2022/10/21 00:59:43;;;;;;;;;;;;;;;21.37;26.90;98905.66;5099171;28;905;-79
2022/10/21 01:02:08;;;;;;;;;;;;;;;21.19;27.14;98908.63;5075820;28;1906;-79
2022/10/21 01:04:34;;;;;;;;;;;;;;;21.08;27.22;98900.25;5058977;28;864;-79
2022/10/21 01:06:59;;;;;;;;;;;;;;;21.05;27.23;98912.44;5058464;28;870;-79
2022/10/21 01:09:25;;;;;;;;;;;;;;;20.98;27.27;98904.00;5042407;28;763;-79
2022/10/21 01:11:50;;;;;;;;;;;;;;;21.33;26.75;98906.47;5042617;28;1110;-78
2022/10/21 01:14:34;;;;;;;;;;;;;;;21.45;26.76;98907.16;5059600;28;1248;-79
2022/10/21 01:17:12;;;;;;;;;;;;;;;21.03;27.17;98900.72;5075441;28;814;-78
2022/10/21 01:19:37;;;;;;;;;;;;;;;20.93;27.39;98898.78;5075967;28;841;-79
2022/10/21 01:22:11;;;;;;;;;;;;;;;20.72;27.56;98903.41;5056463;28;1914;-79
2022/10/21 01:24:55;;;;;;;;;;;;;;;21.24;27.03;98897.69;5039092;28;1180;-79
2022/10/21 01:27:21;;;;;;;;;;;;;;;21.24;26.85;98909.00;5038952;28;955;-79
2022/10/21 01:29:52;;;;;;;;;;;;;;;21.20;26.68;98908.22;5038918;28;747;-79
2022/10/21 01:32:32;;;;;;;;;;;;;;;21.03;26.96;98910.00;5045354;28;1106;-79
2022/10/21 01:34:58;;;;;;;;;;;;;;;20.99;27.14;98908.44;5097650;28;778;-79
2022/10/21 01:37:23;;;;;;;;;;;;;;;20.96;27.06;98909.28;5097980;28;694;-79
2022/10/21 01:40:09;;;;;;;;;;;;;;;20.81;27.09;98909.41;5096665;28;727;-79
2022/10/21 01:42:37;;;;;;;;;;;;;;;21.20;26.65;98902.56;5058662;28;1909;-79
2022/10/21 01:45:19;;;;;;;;;;;;;;;21.18;26.62;98902.16;5075190;28;938;-79
2022/10/21 01:47:57;;;;;;;;;;;;;;;21.40;26.61;98901.97;5058773;28;1096;-79
2022/10/21 01:50:26;;;;;;;;;;;;;;;21.27;26.56;98902.47;5075479;28;872;-78
2022/10/21 01:52:54;;;;;;;;;;;;;;;21.00;27.10;98901.56;5015206;28;998;-79
2022/10/21 01:55:20;;;;;;;;;;;;;;;21.07;26.63;98912.81;4998679;28;945;-79
2022/10/21 01:57:47;;;;;;;;;;;;;;;20.99;26.78;98919.78;4998998;28;810;-79
2022/10/21 02:00:13;;;;;;;;;;;;;;;21.43;26.16;98920.94;4998877;28;1122;-79
2022/10/21 02:06:13;;;;;;;;;;;;;;;21.06;26.52;98920.50;5035194;28;1109;-79
2022/10/21 02:08:40;;;;;;;;;;;;;;;21.10;26.40;98916.84;4998732;28;1118;-79
2022/10/21 02:11:06;;;;;;;;;;;;;;;21.06;26.47;98926.16;5015047;28;957;-79
2022/10/21 02:13:33;;;;;;;;;;;;;;;21.28;26.32;98921.06;4998711;28;1202;-79
2022/10/21 02:16:00;;;;;;;;;;;;;;;21.32;26.06;98924.69;5015381;28;830;-79
2022/10/21 02:18:25;;;;;;;;;;;;;;;21.14;26.29;98915.56;5014578;28;981;-79
2022/10/21 02:21:20;;;;;;;;;;;;;;;20.72;27.00;98917.56;5018117;28;1244;-78
2022/10/21 02:23:52;;;;;;;;;;;;;;;20.90;26.53;98910.97;5032969;28;1902;-79
2022/10/21 02:26:18;;;;;;;;;;;;;;;21.19;26.35;98923.59;5054586;28;819;-79
2022/10/21 02:28:43;;;;;;;;;;;;;;;21.37;25.94;98923.44;5034342;28;840;-79
2022/10/21 02:31:18;;;;;;;;;;;;;;;21.40;25.88;98922.59;5034558;28;801;-78
2022/10/21 02:33:49;;;;;;;;;;;;;;;21.04;26.44;98922.16;5023925;28;1111;-79
2022/10/21 02:36:16;;;;;;;;;;;;;;;21.02;26.40;98922.53;4998717;28;936;-79
2022/10/21 02:38:43;;;;;;;;;;;;;;;20.75;26.63;98928.06;4998766;28;814;-79
2022/10/21 02:41:09;;;;;;;;;;;;;;;21.24;26.14;98925.97;4982373;28;936;-79
2022/10/21 02:43:39;;;;;;;;;;;;;;;21.32;25.85;98926.72;4994694;28;1995;-79
2022/10/21 02:46:05;;;;;;;;;;;;;;;21.43;25.76;98923.78;4978675;28;839;-79
2022/10/21 02:48:34;;;;;;;;;;;;;;;21.14;26.31;98926.91;4978789;28;808;-79
2022/10/21 02:51:00;;;;;;;;;;;;;;;20.98;26.18;98935.13;4979174;28;776;-79
2022/10/21 02:53:26;;;;;;;;;;;;;;;21.05;26.08;98927.38;4956139;29;1122;-79
2022/10/21 02:59:25;;;;;;;;;;;;;;;21.32;25.84;98938.84;4941091;29;947;-79
2022/10/21 03:01:51;;;;;;;;;;;;;;;21.21;25.75;98938.13;4955970;29;1907;-79
2022/10/21 03:04:16;;;;;;;;;;;;;;;21.10;26.39;98930.97;4956194;29;863;-79
2022/10/21 03:06:42;;;;;;;;;;;;;;;21.10;26.18;98934.63;4998319;28;784;-79
2022/10/21 03:09:07;;;;;;;;;;;;;;;21.09;25.97;98930.19;5030954;28;1271;-79
2022/10/21 03:11:33;;;;;;;;;;;;;;;21.22;25.81;98925.59;4998410;28;787;-79
2022/10/21 03:13:58;;;;;;;;;;;;;;;21.45;25.53;98929.81;5014684;28;1289;-79
2022/10/21 03:16:24;;;;;;;;;;;;;;;20.98;25.95;98923.78;4998207;28;931;-78
2022/10/21 03:18:49;;;;;;;;;;;;;;;21.01;26.07;98929.44;5014328;28;860;-79
2022/10/21 03:21:14;;;;;;;;;;;;;;;20.84;26.33;98935.25;5038435;28;978;-79
2022/10/21 03:23:40;;;;;;;;;;;;;;;21.26;25.54;98932.00;5028551;28;1974;-79
2022/10/21 03:26:05;;;;;;;;;;;;;;;21.36;25.46;98926.69;5061015;28;849;-79
2022/10/21 03:28:31;;;;;;;;;;;;;;;21.33;25.77;98928.31;5061685;28;1106;-78
2022/10/21 03:30:56;;;;;;;;;;;;;;;21.08;25.89;98922.88;5098097;28;738;-79
2022/10/21 03:33:22;;;;;;;;;;;;;;;21.09;25.80;98921.69;5064344;28;901;-80
2022/10/21 03:35:47;;;;;;;;;;;;;;;21.15;25.80;98922.84;5114805;28;863;-80
2022/10/21 03:38:13;;;;;;;;;;;;;;;21.30;25.97;98930.00;5114890;28;809;-80
2022/10/21 03:40:38;;;;;;;;;;;;;;;21.40;25.50;98924.59;5080929;28;845;-80
2022/10/21 03:43:04;;;;;;;;;;;;;;;21.18;25.96;98930.47;5061025;28;1914;-80
2022/10/21 03:45:29;;;;;;;;;;;;;;;21.23;25.72;98932.84;5114564;28;1686;-80
2022/10/21 03:47:55;;;;;;;;;;;;;;;21.11;25.83;98933.38;5080920;28;818;-80
2022/10/21 03:50:20;;;;;;;;;;;;;;;21.20;26.10;98932.91;5080785;28;774;-80
2022/10/21 03:52:46;;;;;;;;;;;;;;;21.44;25.39;98939.53;5078936;28;1118;-80
2022/10/21 03:55:30;;;;;;;;;;;;;;;21.52;25.42;98930.53;5045345;28;1206;-80
2022/10/21 03:57:55;;;;;;;;;;;;;;;21.09;25.79;98930.19;5079808;28;758;-80
2022/10/21 04:00:21;;;;;;;;;;;;;;;20.94;26.25;98934.38;5078372;28;711;-80
2022/10/21 04:02:46;;;;;;;;;;;;;;;20.94;26.45;98934.38;5063245;28;1906;-80
2022/10/21 04:05:12;;;;;;;;;;;;;;;21.31;25.54;98931.59;5074894;28;711;-80
2022/10/21 04:11:13;;;;;;;;;;;;;;;21.23;25.77;98924.34;5059993;28;1456;-80
2022/10/21 04:13:38;;;;;;;;;;;;;;;21.18;25.62;98932.50;5079729;28;782;-80
2022/10/21 04:16:04;;;;;;;;;;;;;;;20.98;25.97;98935.13;5077787;28;881;-80
2022/10/21 04:22:05;;;;;;;;;;;;;;;21.59;25.27;98932.47;5054348;28;1918;-80
2022/10/21 04:24:30;;;;;;;;;;;;;;;21.19;25.56;98931.28;5055371;28;1521;-80
2022/10/21 04:26:55;;;;;;;;;;;;;;;21.01;25.94;98939.94;5056714;28;770;-80
2022/10/21 04:29:21;;;;;;;;;;;;;;;21.01;25.91;98945.59;5057026;28;798;-80
2022/10/21 04:31:46;;;;;;;;;;;;;;;21.24;25.78;98940.13;5055451;28;1461;-80
2022/10/21 04:34:12;;;;;;;;;;;;;;;21.28;25.50;98943.72;5056647;28;926;-81
2022/10/21 04:36:37;;;;;;;;;;;;;;;21.56;24.96;98936.19;5056822;28;815;-80
2022/10/21 04:39:03;;;;;;;;;;;;;;;21.14;26.05;98937.38;5023218;28;1171;-80
2022/10/21 04:41:28;;;;;;;;;;;;;;;21.19;25.58;98934.09;5038593;28;1985;-80
2022/10/21 04:43:54;;;;;;;;;;;;;;;21.21;25.83;98938.13;5054054;28;1685;-80
2022/10/21 04:46:20;;;;;;;;;;;;;;;21.36;25.54;98938.03;5054895;28;1536;-80
2022/10/21 04:48:45;;;;;;;;;;;;;;;21.45;25.29;98943.97;5060807;28;965;-80
2022/10/21 04:51:11;;;;;;;;;;;;;;;21.28;25.40;98949.38;5060929;28;1119;-80
2022/10/21 04:53:36;;;;;;;;;;;;;;;21.12;25.66;98937.00;5077581;28;1188;-80
2022/10/21 04:56:01;;;;;;;;;;;;;;;21.22;25.77;98945.41;5077273;28;710;-80
2022/10/21 04:58:45;;;;;;;;;;;;;;;21.25;25.46;98953.06;5056656;28;1548;-80
2022/10/21 05:01:11;;;;;;;;;;;;;;;21.36;25.43;98960.66;5065053;28;1654;-80
2022/10/21 05:03:36;;;;;;;;;;;;;;;21.25;25.60;98953.06;5076993;28;1965;-80
2022/10/21 05:06:02;;;;;;;;;;;;;;;21.07;25.89;98967.38;5068060;28;1757;-80
2022/10/21 05:08:27;;;;;;;;;;;;;;;21.15;25.44;98968.13;5073602;28;782;-80
2022/10/21 05:10:57;;;;;;;;;;;;;;;21.30;25.27;98963.97;5056060;28;1220;-80
2022/10/21 05:13:22;;;;;;;;;;;;;;;21.33;25.21;98956.63;5056295;28;719;-80
2022/10/21 05:15:48;;;;;;;;;;;;;;;20.98;25.77;98969.06;5059314;28;729;-80
2022/10/21 05:18:13;;;;;;;;;;;;;;;21.12;25.49;98971.78;5056697;28;1720;-80
2022/10/21 05:20:39;;;;;;;;;;;;;;;21.01;25.75;98966.22;5073148;28;817;-80
2022/10/21 05:23:04;;;;;;;;;;;;;;;21.53;24.95;98965.31;5068444;28;1902;-80
2022/10/21 05:25:29;;;;;;;;;;;;;;;21.50;25.06;98964.16;5057764;28;739;-80
2022/10/21 05:27:55;;;;;;;;;;;;;;;21.28;25.07;98971.22;5040282;28;1373;-80
2022/10/21 05:30:20;;;;;;;;;;;;;;;21.12;25.65;98968.94;5056861;28;727;-80
2022/10/21 05:32:46;;;;;;;;;;;;;;;21.01;25.95;98973.91;5060975;28;1538;-80
2022/10/21 05:35:11;;;;;;;;;;;;;;;21.20;25.50;98981.00;5070129;28;1769;-80
2022/10/21 05:37:37;;;;;;;;;;;;;;;21.40;25.26;98979.22;5076206;28;846;-80
2022/10/21 05:40:03;;;;;;;;;;;;;;;21.40;25.17;98984.06;5056735;28;1942;-80
2022/10/21 05:42:28;;;;;;;;;;;;;;;21.20;25.41;98987.47;5057477;28;1906;-80
2022/10/21 05:44:54;;;;;;;;;;;;;;;21.18;25.56;98994.75;5057337;28;822;-80
2022/10/21 05:47:20;;;;;;;;;;;;;;;20.92;25.80;98987.72;5056783;28;715;-80
2022/10/21 05:49:45;;;;;;;;;;;;;;;21.10;25.78;98996.88;5058552;28;810;-80
2022/10/21 05:52:11;;;;;;;;;;;;;;;21.25;25.73;98997.56;5074766;28;1897;-80
2022/10/21 05:54:36;;;;;;;;;;;;;;;21.06;26.03;98998.91;5058976;28;916;-80
2022/10/21 05:57:02;;;;;;;;;;;;;;;20.97;26.02;99007.88;5077455;28;854;-80
2022/10/21 05:59:27;;;;;;;;;;;;;;;20.75;26.27;99001.59;5077352;28;817;-80
2022/10/21 06:01:53;;;;;;;;;;;;;;;20.94;26.03;99013.59;5077194;28;1902;-80
2022/10/21 06:04:19;;;;;;;;;;;;;;;21.39;25.36;99010.78;5042648;28;1213;-80
2022/10/21 06:06:44;;;;;;;;;;;;;;;21.40;25.47;99012.38;5059274;28;1129;-80
2022/10/21 06:09:10;;;;;;;;;;;;;;;21.28;25.43;99022.97;5074833;28;1655;-80
2022/10/21 06:11:35;;;;;;;;;;;;;;;21.14;25.84;99011.78;5075017;28;1502;-80
2022/10/21 06:14:01;;;;;;;;;;;;;;;20.89;26.05;99011.19;5075213;28;846;-80
2022/10/21 06:20:01;;;;;;;;;;;;;;;21.36;25.64;99014.47;5074404;28;1485;-80
2022/10/21 06:22:27;;;;;;;;;;;;;;;20.95;25.86;99015.19;5043923;28;1914;-80
2022/10/21 06:24:52;;;;;;;;;;;;;;;20.92;26.08;99018.84;5054871;28;805;-80
2022/10/21 06:27:18;;;;;;;;;;;;;;;21.02;26.00;99015.13;5028692;28;1748;-80
2022/10/21 06:29:44;;;;;;;;;;;;;;;21.07;25.81;99017.50;5058087;28;842;-80
2022/10/21 06:32:10;;;;;;;;;;;;;;;21.45;25.21;99014.75;5024623;28;1115;-80
2022/10/21 06:34:36;;;;;;;;;;;;;;;21.47;25.24;99012.31;5057549;28;723;-80
2022/10/21 06:37:02;;;;;;;;;;;;;;;21.18;25.79;99012.53;5054568;28;878;-80
2022/10/21 06:39:27;;;;;;;;;;;;;;;21.14;25.72;99020.28;5054374;28;1795;-80
2022/10/21 06:41:52;;;;;;;;;;;;;;;21.05;25.76;99025.63;5037214;28;1914;-80
2022/10/21 06:44:37;;;;;;;;;;;;;;;21.31;25.52;99022.19;5036824;28;1534;-80
2022/10/21 06:47:03;;;;;;;;;;;;;;;21.46;25.34;99022.03;5054719;28;760;-80
2022/10/21 06:49:28;;;;;;;;;;;;;;;21.11;25.79;99018.28;5054273;28;763;-80
2022/10/21 06:51:54;;;;;;;;;;;;;;;21.15;25.72;99019.06;5053919;28;1494;-80
2022/10/21 06:54:19;;;;;;;;;;;;;;;20.73;26.45;99021.00;5037450;28;1543;-80
2022/10/21 06:56:45;;;;;;;;;;;;;;;21.10;25.93;99022.34;5038083;28;1218;-80
2022/10/21 06:59:10;;;;;;;;;;;;;;;21.36;25.71;99028.63;5054530;28;809;-80
2022/10/21 07:01:36;;;;;;;;;;;;;;;20.89;26.36;99028.16;5017571;28;1898;-80
2022/10/21 07:04:21;;;;;;;;;;;;;;;20.99;26.29;99021.63;5035603;28;1517;-80
2022/10/21 07:06:47;;;;;;;;;;;;;;;20.97;26.29;99024.06;5058361;28;838;-80
2022/10/21 07:09:13;;;;;;;;;;;;;;;20.87;26.42;99019.28;5041763;28;1448;-80
2022/10/21 07:11:38;;;;;;;;;;;;;;;21.46;25.68;99019.22;5041491;28;958;-80
2022/10/21 07:14:04;;;;;;;;;;;;;;;21.60;25.62;99016.22;5024081;28;1560;-80
2022/10/21 07:16:31;;;;;;;;;;;;;;;21.26;26.02;99019.75;5038414;28;863;-80
2022/10/21 07:22:31;;;;;;;;;;;;;;;20.93;26.52;99017.59;5037853;28;1914;-80
2022/10/21 07:24:56;;;;;;;;;;;;;;;21.43;26.03;99011.53;5062072;28;1397;-80
2022/10/21 07:27:22;;;;;;;;;;;;;;;21.34;25.92;99017.69;5074764;28;1127;-80
2022/10/21 07:29:47;;;;;;;;;;;;;;;21.19;26.31;99013.34;5058082;28;806;-80
2022/10/21 07:32:12;;;;;;;;;;;;;;;21.29;26.25;99018.91;5078973;28;825;-80
2022/10/21 07:34:38;;;;;;;;;;;;;;;21.15;26.20;99019.06;5063319;28;1478;-80
2022/10/21 07:37:03;;;;;;;;;;;;;;;21.40;26.22;99024.53;5079377;28;1256;-80
2022/10/21 07:39:29;;;;;;;;;;;;;;;21.42;26.09;99022.06;5062286;28;1123;-80
2022/10/21 07:41:55;;;;;;;;;;;;;;;21.32;25.94;99018.13;5095552;28;1905;-80
2022/10/21 07:44:21;;;;;;;;;;;;;;;21.30;26.20;99025.44;5077208;28;1413;-80
2022/10/21 07:46:47;;;;;;;;;;;;;;;21.42;26.28;99021.28;5057660;28;837;-80
2022/10/21 07:49:12;;;;;;;;;;;;;;;21.18;26.65;99034.38;5040748;28;907;-80
2022/10/21 07:54:44;;;;;;;;;;;;;;;21.49;26.32;99016.31;5072586;28;1506;-80
2022/10/21 07:57:10;;;;;;;;;;;;;;;21.13;26.86;99024.31;5040384;28;1462;-80
2022/10/21 07:59:35;;;;;;;;;;;;;;;21.20;26.59;99018.63;5043783;28;1554;-80
2022/10/21 08:02:00;;;;;;;;;;;;;;;21.11;26.61;99018.28;5073846;28;1987;-80
2022/10/21 08:04:30;;;;;;;;;;;;;;;21.06;26.97;99015.91;5073941;28;743;-80
2022/10/21 08:06:56;;;;;;;;;;;;;;;21.05;26.81;99014.28;5056341;28;1522;-80
2022/10/21 08:09:21;;;;;;;;;;;;;;;21.29;26.81;99030.22;5071940;28;1568;-80
2022/10/21 08:11:47;;;;;;;;;;;;;;;21.39;26.31;99024.94;5055133;28;1852;-80
2022/10/21 08:14:12;;;;;;;;;;;;;;;21.38;26.28;99020.50;5039705;28;1162;-80
2022/10/21 08:16:38;;;;;;;;;;;;;;;21.27;26.47;99021.38;5056770;28;1826;-80
2022/10/21 08:19:04;;;;;;;;;;;;;;;21.15;26.70;99024.72;5039799;28;808;-80
2022/10/21 08:21:30;;;;;;;;;;;;;;;20.98;27.14;99017.97;5040265;28;1185;-80
2022/10/21 08:23:56;;;;;;;;;;;;;;;21.63;26.08;99015.38;5056941;28;1991;-80
2022/10/21 08:26:21;;;;;;;;;;;;;;;21.79;25.85;99012.78;5067835;28;825;-80
2022/10/21 08:28:46;;;;;;;;;;;;;;;21.74;25.96;99007.56;5063401;28;1137;-80
2022/10/21 08:31:13;;;;;;;;;;;;;;;21.77;25.70;99008.78;5097271;28;774;-80
2022/10/21 08:33:38;;;;;;;;;;;;;;;21.43;26.47;99017.22;5063424;28;1026;-80
2022/10/21 08:36:07;;;;;;;;;;;;;;;21.39;26.65;99017.22;5058379;28;1504;-80
2022/10/21 08:38:33;;;;;;;;;;;;;;;21.24;26.71;99016.56;5039930;28;814;-80
2022/10/21 08:40:58;;;;;;;;;;;;;;;20.98;27.08;99020.00;5023611;28;739;-80
2022/10/21 08:43:25;;;;;;;;;;;;;;;21.03;27.00;99017.53;5039638;28;1997;-80
2022/10/21 08:45:52;;;;;;;;;;;;;;;21.21;27.16;99016.59;5042949;28;1365;-80
2022/10/21 08:48:19;;;;;;;;;;;;;;;21.31;26.98;99018.53;5043659;28;1583;-80
2022/10/21 08:50:45;;;;;;;;;;;;;;;21.42;26.62;99024.09;5036295;28;1220;-80
2022/10/21 08:53:12;;;;;;;;;;;;;;;21.22;26.77;99013.31;5073837;28;1196;-80
2022/10/21 08:55:41;;;;;;;;;;;;;;;21.24;27.00;99008.06;5090853;28;1378;-80
2022/10/21 08:58:20;;;;;;;;;;;;;;;21.16;27.17;99008.53;5070012;28;1596;-80
2022/10/21 09:00:46;;;;;;;;;;;;;;;21.00;27.17;99011.91;5057171;28;1177;-80
2022/10/21 09:03:11;;;;;;;;;;;;;;;21.26;27.00;99016.94;5069086;28;1987;-80
2022/10/21 09:05:37;;;;;;;;;;;;;;;21.26;27.16;99014.09;5078224;28;735;-80
2022/10/21 09:08:05;;;;;;;;;;;;;;;21.52;26.48;99011.88;5076719;28;857;-80
2022/10/21 09:10:35;;;;;;;;;;;;;;;21.21;26.95;99006.06;5061910;28;1143;-80
2022/10/21 09:13:13;;;;;;;;;;;;;;;21.14;27.22;99006.13;5077175;28;814;-80
2022/10/21 09:15:44;;;;;;;;;;;;;;;21.13;27.18;99010.16;5078198;28;735;-80
2022/10/21 09:18:31;;;;;;;;;;;;;;;21.30;27.10;99005.63;5077765;28;857;-80
2022/10/21 09:21:14;;;;;;;;;;;;;;;21.45;26.98;98998.59;5058048;28;1536;-80
2022/10/21 09:23:51;;;;;;;;;;;;;;;21.50;26.51;99003.81;5090216;28;1910;-80
2022/10/21 09:26:26;;;;;;;;;;;;;;;21.18;27.05;99004.06;5089245;28;778;-80
2022/10/21 09:28:52;;;;;;;;;;;;;;;21.17;27.38;99005.28;5058521;28;1518;-80
2022/10/21 09:31:18;;;;;;;;;;;;;;;20.99;27.37;99005.44;5058683;28;1473;-80
2022/10/21 09:33:44;;;;;;;;;;;;;;;21.19;27.09;99007.69;5058750;28;934;-80
2022/10/21 09:36:22;;;;;;;;;;;;;;;21.08;27.36;98990.81;5075456;28;740;-80
2022/10/21 09:39:01;;;;;;;;;;;;;;;21.04;27.28;99005.00;5075651;28;841;-80
2022/10/21 09:41:30;;;;;;;;;;;;;;;21.06;27.52;98998.91;5066862;28;1787;-80
2022/10/21 09:43:55;;;;;;;;;;;;;;;21.33;26.90;98996.28;5058825;28;1902;-80
2022/10/21 09:46:21;;;;;;;;;;;;;;;21.28;26.89;98983.34;5059035;28;1121;-80
2022/10/21 09:48:48;;;;;;;;;;;;;;;21.21;27.09;98980.59;5059200;28;921;-80
2022/10/21 09:51:18;;;;;;;;;;;;;;;21.09;27.19;98981.13;5075523;28;805;-80
2022/10/21 09:53:43;;;;;;;;;;;;;;;21.14;27.21;98972.19;5054525;28;1734;-80
2022/10/21 09:56:10;;;;;;;;;;;;;;;21.30;27.28;98978.13;5055436;28;877;-80
2022/10/21 09:58:36;;;;;;;;;;;;;;;21.56;26.77;98970.16;5038811;28;854;-80
2022/10/21 10:01:01;;;;;;;;;;;;;;;21.24;26.98;98967.59;5055296;28;830;-80
2022/10/21 10:03:33;;;;;;;;;;;;;;;21.18;27.11;98972.94;5051740;28;1918;-80
2022/10/21 10:05:59;;;;;;;;;;;;;;;21.22;27.46;98973.69;5038608;28;1190;-80
2022/10/21 10:08:24;;;;;;;;;;;;;;;21.13;27.23;98964.09;5021160;28;1569;-80
2022/10/21 10:10:49;;;;;;;;;;;;;;;20.88;27.58;98969.97;5038466;28;1106;-80
2022/10/21 10:13:18;;;;;;;;;;;;;;;20.83;27.85;98970.41;5038159;28;801;-80
2022/10/21 10:15:44;;;;;;;;;;;;;;;21.33;27.46;98967.97;5038350;28;814;-80
2022/10/21 10:18:27;;;;;;;;;;;;;;;21.46;26.99;98963.38;5020937;28;1458;-80
2022/10/21 10:21:05;;;;;;;;;;;;;;;21.21;27.18;98963.59;5054511;28;973;-79
2022/10/21 10:23:38;;;;;;;;;;;;;;;21.30;27.35;98957.50;5020603;28;1918;-80
2022/10/21 10:26:04;;;;;;;;;;;;;;;21.08;27.40;98968.16;5041117;28;1177;-80
2022/10/21 10:28:29;;;;;;;;;;;;;;;21.24;27.25;98957.13;5073644;28;1422;-80
2022/10/21 10:30:55;;;;;;;;;;;;;;;21.05;27.54;98963.38;5071680;28;1521;-80
2022/10/21 10:33:21;;;;;;;;;;;;;;;21.47;26.89;98944.38;5049468;28;1865;-80
2022/10/21 10:35:56;;;;;;;;;;;;;;;21.88;26.34;98946.31;5057781;28;827;-80
2022/10/21 10:38:26;;;;;;;;;;;;;;;21.33;27.02;98948.94;5036982;28;1471;-80
2022/10/21 10:40:52;;;;;;;;;;;;;;;21.30;27.08;98935.66;5054656;28;899;-80
2022/10/21 10:43:17;;;;;;;;;;;;;;;21.37;27.04;98946.09;5071040;28;1991;-80
2022/10/21 10:46:01;;;;;;;;;;;;;;;21.28;27.10;98934.41;5054286;28;805;-80
2022/10/21 10:48:29;;;;;;;;;;;;;;;21.19;27.47;98934.94;5057217;28;1545;-80
2022/10/21 10:50:56;;;;;;;;;;;;;;;21.60;26.99;98942.56;5055713;28;789;-80
2022/10/21 10:53:28;;;;;;;;;;;;;;;21.28;27.13;98932.38;5054370;28;1331;-80
2022/10/21 10:55:58;;;;;;;;;;;;;;;21.11;27.43;98939.03;5054315;28;821;-80
2022/10/21 10:58:24;;;;;;;;;;;;;;;21.05;27.59;98932.22;5068485;28;1510;-80
2022/10/21 11:00:50;;;;;;;;;;;;;;;21.24;27.30;98925.97;5017503;28;1526;-80
2022/10/21 11:03:21;;;;;;;;;;;;;;;20.83;27.99;98928.81;5014675;28;1983;-80
2022/10/21 11:09:21;;;;;;;;;;;;;;;21.33;27.13;98934.78;5013908;28;1535;-80
2022/10/21 11:11:47;;;;;;;;;;;;;;;21.30;27.35;98935.66;5031023;28;739;-80
2022/10/21 11:14:13;;;;;;;;;;;;;;;21.23;27.53;98930.00;5031116;28;740;-80
2022/10/21 11:20:18;;;;;;;;;;;;;;;21.39;27.46;98923.00;5014331;28;1574;-80
2022/10/21 11:22:52;;;;;;;;;;;;;;;21.55;26.99;98917.56;5014550;28;1914;-80
2022/10/21 11:25:18;;;;;;;;;;;;;;;21.38;27.14;98925.03;5014435;28;918;-80
2022/10/21 11:28:02;;;;;;;;;;;;;;;21.16;27.42;98927.25;5014252;28;719;-80
2022/10/21 11:30:48;;;;;;;;;;;;;;;21.06;27.54;98916.84;4998171;28;1364;-80
2022/10/21 11:33:19;;;;;;;;;;;;;;;20.98;28.07;98918.13;5034174;28;875;-80
2022/10/21 11:35:47;;;;;;;;;;;;;;;21.46;27.43;98905.97;5033998;28;962;-80
2022/10/21 11:38:13;;;;;;;;;;;;;;;21.44;27.05;98916.88;5029379;28;1458;-80
2022/10/21 11:40:48;;;;;;;;;;;;;;;21.16;27.57;98913.13;5014961;28;1501;-80
2022/10/21 11:43:32;;;;;;;;;;;;;;;21.11;27.64;98910.75;5030466;28;1910;-80
2022/10/21 11:46:03;;;;;;;;;;;;;;;21.30;27.53;98900.88;5031241;28;766;-80
2022/10/21 11:48:50;;;;;;;;;;;;;;;20.90;28.23;98899.66;5030825;28;1529;-80
2022/10/21 11:51:41;;;;;;;;;;;;;;;21.47;27.31;98899.06;5020480;28;935;-80
2022/10/21 11:54:26;;;;;;;;;;;;;;;21.50;27.19;98895.38;4998002;28;1087;-80
2022/10/21 11:57:27;;;;;;;;;;;;;;;21.28;27.65;98880.63;4981876;28;854;-80
2022/10/21 12:00:05;;;;;;;;;;;;;;;21.13;27.68;98885.66;4939277;29;1461;-80
2022/10/21 12:02:38;;;;;;;;;;;;;;;21.20;27.42;98881.97;4939768;29;1907;-80
2022/10/21 12:05:03;;;;;;;;;;;;;;;21.29;27.60;98877.38;4931466;29;1403;-80
2022/10/21 12:11:18;;;;;;;;;;;;;;;21.11;27.70;98881.66;4951750;29;911;-80
2022/10/21 12:13:47;;;;;;;;;;;;;;;20.96;27.86;98866.84;4958698;29;852;-80
2022/10/21 12:16:17;;;;;;;;;;;;;;;21.05;27.72;98879.28;4943140;29;958;-80
2022/10/21 12:21:52;;;;;;;;;;;;;;;21.38;27.38;98873.28;4978291;28;1902;-80
2022/10/21 12:24:18;;;;;;;;;;;;;;;21.10;27.86;98869.53;4962030;28;1097;-80
2022/10/21 12:26:49;;;;;;;;;;;;;;;20.93;27.88;98870.50;4962381;28;1069;-80
2022/10/21 12:29:17;;;;;;;;;;;;;;;20.76;28.08;98864.59;4976624;28;1489;-80
2022/10/21 12:31:51;;;;;;;;;;;;;;;20.76;28.16;98867.44;4977872;28;1033;-80
2022/10/21 12:34:17;;;;;;;;;;;;;;;21.22;27.53;98868.97;5044421;28;1119;-80
2022/10/21 12:36:43;;;;;;;;;;;;;;;21.35;27.35;98865.63;5056782;28;1189;-80
2022/10/21 12:39:29;;;;;;;;;;;;;;;20.96;28.08;98869.66;5055765;28;1550;-80
2022/10/21 12:42:04;;;;;;;;;;;;;;;20.87;27.90;98875.81;4996684;28;1963;-80
2022/10/21 12:44:30;;;;;;;;;;;;;;;20.87;27.98;98872.19;5005025;28;1060;-80
2022/10/21 12:46:56;;;;;;;;;;;;;;;21.25;27.45;98859.66;5000290;28;1071;-80
2022/10/21 12:49:23;;;;;;;;;;;;;;;21.33;27.25;98855.53;4980125;28;1544;-80
2022/10/21 12:51:57;;;;;;;;;;;;;;;21.17;27.37;98869.44;4964968;28;964;-80
2022/10/21 12:54:29;;;;;;;;;;;;;;;21.11;27.80;98865.47;5000287;28;1187;-80
2022/10/21 12:56:59;;;;;;;;;;;;;;;21.15;27.78;98866.25;5000182;28;1252;-80
2022/10/21 12:59:29;;;;;;;;;;;;;;;21.01;27.71;98875.66;4998760;28;1512;-80
2022/10/21 13:02:14;;;;;;;;;;;;;;;21.36;27.52;98870.06;5000192;28;1989;-80
2022/10/21 13:04:43;;;;;;;;;;;;;;;21.38;26.97;98870.44;4919728;29;962;-80
2022/10/21 13:07:14;;;;;;;;;;;;;;;21.08;27.42;98871.94;4919873;29;1223;-80
2022/10/21 13:09:44;;;;;;;;;;;;;;;21.03;27.52;98878.06;4919234;29;1558;-80
2022/10/21 13:12:09;;;;;;;;;;;;;;;20.79;27.72;98872.25;4917002;29;930;-80
2022/10/21 13:14:47;;;;;;;;;;;;;;;21.32;27.28;98865.25;4919814;29;883;-79
2022/10/21 13:17:13;;;;;;;;;;;;;;;21.48;26.93;98867.47;4903866;29;1655;-80
2022/10/21 13:19:38;;;;;;;;;;;;;;;21.30;27.06;98873.38;4927184;29;1401;-80
2022/10/21 13:22:11;;;;;;;;;;;;;;;20.94;28.06;98872.13;4941572;29;2368;-80
2022/10/21 13:24:36;;;;;;;;;;;;;;;20.88;27.92;98870.94;4934593;29;1014;-80
2022/10/21 13:27:03;;;;;;;;;;;;;;;21.19;27.47;98878.31;4961424;28;815;-80
2022/10/21 13:29:31;;;;;;;;;;;;;;;21.37;27.01;98871.69;4960279;28;1552;-80
2022/10/21 13:32:09;;;;;;;;;;;;;;;21.43;27.26;98875.66;4976822;28;775;-80
2022/10/21 13:34:35;;;;;;;;;;;;;;;21.02;27.59;98873.66;4961333;28;1004;-80
2022/10/21 13:37:00;;;;;;;;;;;;;;;20.73;28.07;98856.16;4976982;28;860;-80
2022/10/21 13:39:26;;;;;;;;;;;;;;;20.57;28.65;98865.16;4962732;28;1548;-80
2022/10/21 13:41:59;;;;;;;;;;;;;;;21.20;27.37;98867.81;5019646;28;1902;-80
2022/10/21 13:44:29;;;;;;;;;;;;;;;21.40;27.08;98859.50;5073286;28;1097;-80
2022/10/21 13:46:54;;;;;;;;;;;;;;;21.14;27.25;98864.63;5073462;28;1236;-80